Terminal Aerodrome Forecast
Issued by NWS Hastings, NE

Home | Current Version | Previous Version | Text Only | Print | Product List | Glossary On
Versions: 1 2 3 4 5 6 7 8 9 10 11 12 13 14 15 16 17 18 19 20 21
000
FTUS43 KGID 281120
TAFGRI
TAF
KGRI 281120Z 2812/2912 00000KT P6SM SCT200
      TEMPO 2812/2814 5SM BR
     FM281500 11009KT P6SM SCT200
     FM290800 VRB05KT P6SM BKN110=

USA.gov is the U.S. government's official web portal to all federal, state and local government web resources and services.